createdAt,value
2018-05-17T00:00:20.392Z,1003.32
2018-05-17T00:01:00.913Z,1003.32
2018-05-17T00:01:41.441Z,1003.35
2018-05-17T00:02:21.983Z,1003.42
2018-05-17T00:03:02.505Z,1003.4
2018-05-17T00:03:43.054Z,1003.46
2018-05-17T00:04:23.627Z,1003.4
2018-05-17T00:05:04.146Z,1003.4
2018-05-17T00:05:44.659Z,1003.46
2018-05-17T00:06:25.185Z,1003.43
2018-05-17T00:07:05.704Z,1003.43
2018-05-17T00:07:46.232Z,1003.43
2018-05-17T00:08:27.479Z,1003.43
2018-05-17T00:09:07.267Z,1003.44
2018-05-17T00:09:47.782Z,1003.42
2018-05-17T00:10:28.299Z,1003.4
2018-05-17T00:11:08.820Z,1003.37
2018-05-17T00:11:49.354Z,1003.34
2018-05-17T00:12:29.885Z,1003.34
2018-05-17T00:13:17.038Z,1003.36
2018-05-17T00:13:57.556Z,1003.35
2018-05-17T00:14:38.082Z,1003.31
2018-05-17T00:15:18.597Z,1003.31
2018-05-17T00:15:59.120Z,1003.31
2018-05-17T00:16:39.649Z,1003.31
2018-05-17T00:17:20.175Z,1003.3
2018-05-17T00:18:00.679Z,1003.3
2018-05-17T00:18:41.230Z,1003.34
2018-05-17T00:19:21.756Z,1003.34
2018-05-17T00:20:02.269Z,1003.37
2018-05-17T00:20:42.788Z,1003.37
2018-05-17T00:21:23.300Z,1003.38
2018-05-17T00:22:03.822Z,1003.41
2018-05-17T00:22:44.342Z,1003.34
2018-05-17T00:23:24.856Z,1003.37
2018-05-17T00:24:05.372Z,1003.36
2018-05-17T00:24:46.785Z,1003.38
2018-05-17T00:25:27.303Z,1003.38
2018-05-17T00:26:07.809Z,1003.36
2018-05-17T00:26:48.396Z,1003.39
2018-05-17T00:27:28.859Z,1003.39
2018-05-17T00:28:09.378Z,1003.36
2018-05-17T00:28:49.909Z,1003.4
2018-05-17T00:29:30.429Z,1003.36
2018-05-17T00:30:10.948Z,1003.36
2018-05-17T00:30:51.467Z,1003.35
2018-05-17T00:31:32.000Z,1003.35
2018-05-17T00:32:12.515Z,1003.38
2018-05-17T00:32:53.042Z,1003.35
2018-05-17T00:33:33.563Z,1003.37
2018-05-17T00:34:14.091Z,1003.34
2018-05-17T00:34:54.618Z,1003.33
2018-05-17T00:35:35.147Z,1003.37
2018-05-17T00:36:15.681Z,1003.37
2018-05-17T00:36:56.974Z,1003.4
2018-05-17T00:37:37.487Z,1003.37
2018-05-17T00:38:18.005Z,1003.41
2018-05-17T00:38:58.541Z,1003.36
2018-05-17T00:39:39.062Z,1003.39
2018-05-17T00:40:19.592Z,1003.41
2018-05-17T00:41:00.121Z,1003.37
2018-05-17T00:41:40.632Z,1003.41
2018-05-17T00:42:21.160Z,1003.39
2018-05-17T00:43:01.684Z,1003.32
2018-05-17T00:43:42.202Z,1003.38
2018-05-17T00:44:22.737Z,1003.38
2018-05-17T00:45:03.242Z,1003.32
2018-05-17T00:45:43.761Z,1003.34
2018-05-17T00:46:24.277Z,1003.37
2018-05-17T00:47:04.803Z,1003.38
2018-05-17T00:47:45.326Z,1003.39
2018-05-17T00:48:25.845Z,1003.41
2018-05-17T00:49:06.889Z,1003.41
2018-05-17T00:49:47.414Z,1003.38
2018-05-17T00:50:27.932Z,1003.42
2018-05-17T00:51:08.447Z,1003.39
2018-05-17T00:51:48.964Z,1003.39
2018-05-17T00:52:29.500Z,1003.39
2018-05-17T00:53:10.007Z,1003.43
2018-05-17T00:53:50.511Z,1003.4
2018-05-17T00:54:31.026Z,1003.36
2018-05-17T00:55:11.533Z,1003.35
2018-05-17T00:55:52.053Z,1003.34
2018-05-17T00:56:32.566Z,1003.39
2018-05-17T00:57:13.084Z,1003.33
2018-05-17T00:57:53.603Z,1003.28
2018-05-17T00:58:34.109Z,1003.31
2018-05-17T00:59:14.650Z,1003.28
2018-05-17T00:59:55.164Z,1003.34
2018-05-17T01:00:35.673Z,1003.35
2018-05-17T01:01:16.197Z,1003.31
2018-05-17T01:01:56.710Z,1003.38
2018-05-17T01:02:37.228Z,1003.36
2018-05-17T01:03:17.745Z,1003.36
2018-05-17T01:03:58.278Z,1003.38
2018-05-17T01:04:38.784Z,1003.34
2018-05-17T01:05:19.312Z,1003.35
2018-05-17T01:05:59.822Z,1003.39
2018-05-17T01:06:40.328Z,1003.39
2018-05-17T01:07:20.863Z,1003.43
2018-05-17T01:08:01.380Z,1003.38
2018-05-17T01:08:41.894Z,1003.39
2018-05-17T01:09:23.063Z,1003.42
2018-05-17T01:10:03.569Z,1003.4
2018-05-17T01:10:44.095Z,1003.41
2018-05-17T01:11:24.614Z,1003.42
2018-05-17T01:12:05.130Z,1003.37
2018-05-17T01:12:45.637Z,1003.37
2018-05-17T01:13:26.163Z,1003.4
2018-05-17T01:14:06.685Z,1003.4
2018-05-17T01:14:47.213Z,1003.41
2018-05-17T01:15:27.731Z,1003.42
2018-05-17T01:16:08.247Z,1003.45
2018-05-17T01:16:48.818Z,1003.4
2018-05-17T01:17:29.299Z,1003.45
2018-05-17T01:18:09.820Z,1003.45
2018-05-17T01:18:50.336Z,1003.45
2018-05-17T01:19:30.840Z,1003.4
2018-05-17T01:20:11.356Z,1003.4
2018-05-17T01:20:51.880Z,1003.4
2018-05-17T01:21:32.398Z,1003.43
2018-05-17T01:22:12.914Z,1003.39
2018-05-17T01:22:53.437Z,1003.38
2018-05-17T01:23:33.959Z,1003.42
2018-05-17T01:24:14.476Z,1003.43
2018-05-17T01:24:54.990Z,1003.39
2018-05-17T01:25:35.515Z,1003.4
2018-05-17T01:26:16.035Z,1003.45
2018-05-17T01:26:56.581Z,1003.39
2018-05-17T01:27:37.165Z,1003.4
2018-05-17T01:28:18.265Z,1003.36
2018-05-17T01:28:58.791Z,1003.36
2018-05-17T01:29:39.322Z,1003.4
2018-05-17T01:30:19.847Z,1003.34
2018-05-17T01:31:00.361Z,1003.34
2018-05-17T01:31:40.887Z,1003.34
2018-05-17T01:32:21.405Z,1003.32
2018-05-17T01:33:01.915Z,1003.37
2018-05-17T01:33:42.437Z,1003.3
2018-05-17T01:34:22.955Z,1003.29
2018-05-17T01:35:03.535Z,1003.21
2018-05-17T01:35:43.983Z,1003.3
2018-05-17T01:36:24.505Z,1003.25
2018-05-17T01:37:05.031Z,1003.24
2018-05-17T01:37:45.553Z,1003.26
2018-05-17T01:38:26.091Z,1003.25
2018-05-17T01:39:06.614Z,1003.19
2018-05-17T01:39:47.138Z,1003.2
2018-05-17T01:40:27.653Z,1003.23
2018-05-17T01:41:08.169Z,1003.17
2018-05-17T01:41:48.686Z,1003.12
2018-05-17T01:42:29.199Z,1003.12
2018-05-17T01:43:09.724Z,1003.19
2018-05-17T01:43:50.236Z,1003.14
2018-05-17T01:44:30.750Z,1003.08
2018-05-17T01:45:11.272Z,1003.1
2018-05-17T01:45:51.784Z,1003.06
2018-05-17T01:46:32.322Z,1003.05
2018-05-17T01:47:12.853Z,1003.12
2018-05-17T01:47:53.396Z,1003.06
2018-05-17T01:48:33.892Z,1003.07
2018-05-17T01:49:14.409Z,1003.07
2018-05-17T01:49:54.937Z,1003.03
2018-05-17T01:50:35.466Z,1003.05
2018-05-17T01:51:15.989Z,1003.04
2018-05-17T01:51:56.509Z,1003.04
2018-05-17T01:52:37.047Z,1003.03
2018-05-17T01:53:17.567Z,1003.02
2018-05-17T01:53:58.080Z,1003.04
2018-05-17T01:54:38.595Z,1003.01
2018-05-17T01:55:19.112Z,1002.96
2018-05-17T01:55:59.634Z,1003.03
2018-05-17T01:56:40.163Z,1003.02
2018-05-17T01:57:20.676Z,1003.01
2018-05-17T01:58:01.200Z,1002.99
2018-05-17T01:58:41.709Z,1003.02
2018-05-17T01:59:22.221Z,1002.97
2018-05-17T02:00:02.745Z,1002.97
2018-05-17T02:00:43.261Z,1002.91
2018-05-17T02:01:23.792Z,1002.9
2018-05-17T02:02:04.299Z,1002.93
2018-05-17T02:02:44.813Z,1002.95
2018-05-17T02:03:25.341Z,1002.98
2018-05-17T02:04:05.855Z,1002.99
2018-05-17T02:04:46.389Z,1003.01
2018-05-17T02:05:26.902Z,1002.98
2018-05-17T02:06:07.419Z,1002.97
2018-05-17T02:06:47.939Z,1002.95
2018-05-17T02:07:28.462Z,1002.96
2018-05-17T02:08:08.971Z,1002.92
2018-05-17T02:08:49.492Z,1002.91
2018-05-17T02:09:30.011Z,1002.91
2018-05-17T02:10:10.520Z,1002.9
2018-05-17T02:10:51.042Z,1002.94
2018-05-17T02:11:31.551Z,1002.89
2018-05-17T02:12:12.070Z,1002.98
2018-05-17T02:12:52.584Z,1002.93
2018-05-17T02:13:33.092Z,1002.92
2018-05-17T02:14:13.619Z,1002.89
2018-05-17T02:14:54.135Z,1002.91
2018-05-17T02:15:34.644Z,1002.94
2018-05-17T02:16:15.161Z,1002.99
2018-05-17T02:16:55.675Z,1003
2018-05-17T02:17:36.193Z,1003.05
2018-05-17T02:18:16.724Z,1003.08
2018-05-17T02:18:57.248Z,1003.05
2018-05-17T02:19:37.759Z,1003.08
2018-05-17T02:20:18.284Z,1003.06
2018-05-17T02:20:58.823Z,1003.15
2018-05-17T02:21:39.339Z,1003.09
2018-05-17T02:22:19.860Z,1003.13
2018-05-17T02:23:00.378Z,1003.09
2018-05-17T02:23:40.897Z,1003.14
2018-05-17T02:24:21.409Z,1003.13
2018-05-17T02:25:01.936Z,1003.13
2018-05-17T02:25:42.473Z,1003.19
2018-05-17T02:26:22.982Z,1003.23
2018-05-17T02:27:03.500Z,1003.22
2018-05-17T02:27:44.025Z,1003.27
2018-05-17T02:28:24.550Z,1003.2
2018-05-17T02:29:05.066Z,1003.26
2018-05-17T02:29:45.589Z,1003.24
2018-05-17T02:30:26.111Z,1003.25
2018-05-17T02:31:06.625Z,1003.22
2018-05-17T02:31:47.160Z,1003.21
2018-05-17T02:32:27.680Z,1003.24
2018-05-17T02:33:08.197Z,1003.27
2018-05-17T02:33:48.714Z,1003.22
2018-05-17T02:34:29.242Z,1003.2
2018-05-17T02:35:09.786Z,1003.21
2018-05-17T02:35:50.316Z,1003.23
2018-05-17T02:36:30.840Z,1003.21
2018-05-17T02:37:11.358Z,1003.14
2018-05-17T02:37:51.873Z,1003.19
2018-05-17T02:38:32.394Z,1003.22
2018-05-17T02:39:12.930Z,1003.22
2018-05-17T02:39:53.446Z,1003.23
2018-05-17T02:40:33.966Z,1003.22
2018-05-17T02:41:14.479Z,1003.22
2018-05-17T02:41:55.000Z,1003.2
2018-05-17T02:42:35.509Z,1003.18
2018-05-17T02:43:16.029Z,1003.17
2018-05-17T02:43:56.548Z,1003.23
2018-05-17T02:44:37.056Z,1003.17
2018-05-17T02:45:17.569Z,1003.15
2018-05-17T02:45:58.073Z,1003.18
2018-05-17T02:46:38.595Z,1003.17
2018-05-17T02:47:19.199Z,1003.16
2018-05-17T02:47:59.654Z,1003.2
2018-05-17T02:48:40.201Z,1003.19
2018-05-17T02:49:20.720Z,1003.13
2018-05-17T02:50:01.250Z,1003.14
2018-05-17T02:50:41.756Z,1003.13
2018-05-17T02:51:22.283Z,1003.12
2018-05-17T02:52:02.829Z,1003.14
2018-05-17T02:52:43.345Z,1003.1
2018-05-17T02:53:23.864Z,1003.1
2018-05-17T02:54:04.383Z,1003.1
2018-05-17T02:54:44.909Z,1003.06
2018-05-17T02:55:25.433Z,1003.06
2018-05-17T02:56:05.990Z,1003.08
2018-05-17T02:56:46.522Z,1003.12
2018-05-17T02:57:27.031Z,1003.12
2018-05-17T02:58:07.551Z,1003.16
2018-05-17T02:58:48.074Z,1003.13
2018-05-17T02:59:28.587Z,1003.17
2018-05-17T03:00:09.103Z,1003.14
2018-05-17T03:00:49.632Z,1003.19
2018-05-17T03:01:30.146Z,1003.16
2018-05-17T03:02:10.659Z,1003.2
2018-05-17T03:02:51.192Z,1003.22
2018-05-17T03:03:31.706Z,1003.16
2018-05-17T03:04:12.230Z,1003.21
2018-05-17T03:04:52.751Z,1003.21
2018-05-17T03:05:33.281Z,1003.22
2018-05-17T03:06:13.796Z,1003.21
2018-05-17T03:06:54.326Z,1003.22
2018-05-17T03:07:34.854Z,1003.18
2018-05-17T03:08:15.374Z,1003.27
2018-05-17T03:08:55.892Z,1003.25
2018-05-17T03:09:36.412Z,1003.26
2018-05-17T03:10:16.926Z,1003.31
2018-05-17T03:10:57.446Z,1003.27
2018-05-17T03:11:37.965Z,1003.25
2018-05-17T03:12:18.477Z,1003.31
2018-05-17T03:12:59.000Z,1003.26
2018-05-17T03:13:39.519Z,1003.29
2018-05-17T03:14:20.038Z,1003.27
2018-05-17T03:15:00.574Z,1003.33
2018-05-17T03:15:41.093Z,1003.35
2018-05-17T03:16:21.665Z,1003.31
2018-05-17T03:17:02.190Z,1003.33
2018-05-17T03:17:42.711Z,1003.35
2018-05-17T03:18:23.225Z,1003.35
2018-05-17T03:19:03.755Z,1003.34
2018-05-17T03:19:44.263Z,1003.31
2018-05-17T03:20:24.785Z,1003.29
2018-05-17T03:21:05.319Z,1003.25
2018-05-17T03:21:45.843Z,1003.37
2018-05-17T03:22:26.364Z,1003.36
2018-05-17T03:23:06.905Z,1003.42
2018-05-17T03:23:47.417Z,1003.45
2018-05-17T03:24:27.949Z,1003.5
2018-05-17T03:25:08.481Z,1003.46
2018-05-17T03:25:48.996Z,1003.46
2018-05-17T03:26:29.508Z,1003.53
2018-05-17T03:27:10.029Z,1003.5
2018-05-17T03:27:50.540Z,1003.51
2018-05-17T03:28:31.068Z,1003.48
2018-05-17T03:29:11.593Z,1003.54
2018-05-17T03:29:54.017Z,1003.53
2018-05-17T03:30:35.048Z,1003.52
2018-05-17T03:31:15.019Z,1003.5
2018-05-17T03:31:55.531Z,1003.49
2018-05-17T03:32:36.051Z,1003.54
2018-05-17T03:33:16.563Z,1003.48
2018-05-17T03:33:57.089Z,1003.47
2018-05-17T03:34:37.606Z,1003.51
2018-05-17T03:35:18.122Z,1003.5
2018-05-17T03:35:58.653Z,1003.54
2018-05-17T03:36:39.160Z,1003.53
2018-05-17T03:37:19.682Z,1003.52
2018-05-17T03:38:00.202Z,1003.55
2018-05-17T03:38:40.729Z,1003.5
2018-05-17T03:39:21.247Z,1003.5
2018-05-17T03:40:01.771Z,1003.5
2018-05-17T03:40:42.290Z,1003.53
2018-05-17T03:41:23.516Z,1003.51
2018-05-17T03:42:04.037Z,1003.53
2018-05-17T03:42:44.557Z,1003.56
2018-05-17T03:43:25.065Z,1003.52
2018-05-17T03:44:05.596Z,1003.55
2018-05-17T03:44:46.111Z,1003.55
2018-05-17T03:45:26.635Z,1003.56
2018-05-17T03:46:07.145Z,1003.5
2018-05-17T03:46:47.666Z,1003.54
2018-05-17T03:47:28.201Z,1003.57
2018-05-17T03:48:08.734Z,1003.55
2018-05-17T03:48:49.249Z,1003.58
2018-05-17T03:49:29.764Z,1003.61
2018-05-17T03:50:10.274Z,1003.57
2018-05-17T03:50:50.787Z,1003.6
2018-05-17T03:51:31.307Z,1003.59
2018-05-17T03:52:11.826Z,1003.65
2018-05-17T03:52:52.347Z,1003.64
2018-05-17T03:53:32.852Z,1003.58
2018-05-17T03:54:13.379Z,1003.58
2018-05-17T03:54:53.911Z,1003.59
2018-05-17T03:55:34.432Z,1003.61
2018-05-17T03:56:14.947Z,1003.59
2018-05-17T03:56:55.469Z,1003.54
2018-05-17T03:57:35.993Z,1003.57
2018-05-17T03:58:16.537Z,1003.58
2018-05-17T03:58:57.065Z,1003.58
2018-05-17T03:59:37.583Z,1003.59
2018-05-17T04:00:18.108Z,1003.53
2018-05-17T04:00:58.635Z,1003.59
2018-05-17T04:01:39.156Z,1003.55
2018-05-17T04:02:19.689Z,1003.52
2018-05-17T04:03:00.221Z,1003.54
2018-05-17T04:03:40.731Z,1003.53
2018-05-17T04:04:21.246Z,1003.59
2018-05-17T04:05:01.849Z,1003.63
2018-05-17T04:05:42.289Z,1003.59
2018-05-17T04:06:22.799Z,1003.58
2018-05-17T04:07:03.315Z,1003.64
2018-05-17T04:07:43.856Z,1003.62
2018-05-17T04:08:24.370Z,1003.62
2018-05-17T04:09:04.895Z,1003.59
2018-05-17T04:09:45.409Z,1003.59
2018-05-17T04:10:25.929Z,1003.58
2018-05-17T04:11:06.447Z,1003.62
2018-05-17T04:11:46.970Z,1003.6
2018-05-17T04:12:27.480Z,1003.61
2018-05-17T04:13:08.565Z,1003.65
2018-05-17T04:13:49.138Z,1003.63
2018-05-17T04:14:29.625Z,1003.63
2018-05-17T04:15:10.152Z,1003.64
2018-05-17T04:15:50.660Z,1003.6
2018-05-17T04:16:31.181Z,1003.62
2018-05-17T04:17:11.710Z,1003.64
2018-05-17T04:17:52.238Z,1003.66
2018-05-17T04:18:32.761Z,1003.67
2018-05-17T04:19:13.281Z,1003.64
2018-05-17T04:19:53.801Z,1003.68
2018-05-17T04:20:34.312Z,1003.7
2018-05-17T04:21:14.839Z,1003.71
2018-05-17T04:21:55.347Z,1003.72
2018-05-17T04:22:35.871Z,1003.7
2018-05-17T04:23:16.408Z,1003.73
2018-05-17T04:23:56.951Z,1003.7
2018-05-17T04:24:37.483Z,1003.71
2018-05-17T04:25:18.058Z,1003.72
2018-05-17T04:25:58.574Z,1003.7
2018-05-17T04:26:39.100Z,1003.76
2018-05-17T04:27:19.705Z,1003.71
2018-05-17T04:28:00.147Z,1003.71
2018-05-17T04:28:40.663Z,1003.7
2018-05-17T04:29:21.190Z,1003.69
2018-05-17T04:30:01.707Z,1003.69
2018-05-17T04:30:42.216Z,1003.73
2018-05-17T04:31:22.747Z,1003.69
2018-05-17T04:32:03.272Z,1003.73
2018-05-17T04:32:43.791Z,1003.69
2018-05-17T04:33:24.318Z,1003.73
2018-05-17T04:34:04.844Z,1003.69
2018-05-17T04:34:45.395Z,1003.72
2018-05-17T04:35:25.907Z,1003.75
2018-05-17T04:36:06.417Z,1003.74
2018-05-17T04:36:46.943Z,1003.74
2018-05-17T04:37:27.463Z,1003.76
2018-05-17T04:38:07.989Z,1003.69
2018-05-17T04:38:48.502Z,1003.72
2018-05-17T04:39:29.028Z,1003.75
2018-05-17T04:40:09.546Z,1003.79
2018-05-17T04:40:50.078Z,1003.76
2018-05-17T04:41:30.605Z,1003.73
2018-05-17T04:42:11.139Z,1003.81
2018-05-17T04:42:51.659Z,1003.8
2018-05-17T04:43:32.181Z,1003.76
2018-05-17T04:44:12.709Z,1003.78
2018-05-17T04:44:53.239Z,1003.81
2018-05-17T04:45:33.763Z,1003.77
2018-05-17T04:46:14.268Z,1003.76
2018-05-17T04:46:54.791Z,1003.77
2018-05-17T04:47:35.333Z,1003.79
2018-05-17T04:48:15.869Z,1003.71
2018-05-17T04:48:56.396Z,1003.69
2018-05-17T04:49:36.917Z,1003.75
2018-05-17T04:50:17.441Z,1003.69
2018-05-17T04:50:57.963Z,1003.77
2018-05-17T04:51:38.494Z,1003.75
2018-05-17T04:52:19.010Z,1003.76
2018-05-17T04:52:59.539Z,1003.76
2018-05-17T04:53:40.077Z,1003.74
2018-05-17T04:54:20.603Z,1003.77
2018-05-17T04:55:01.113Z,1003.77
2018-05-17T04:55:41.643Z,1003.84
2018-05-17T04:56:22.157Z,1003.75
2018-05-17T04:57:02.670Z,1003.79
2018-05-17T04:57:43.210Z,1003.72
2018-05-17T04:58:23.731Z,1003.79
2018-05-17T04:59:04.245Z,1003.78
2018-05-17T04:59:44.770Z,1003.74
2018-05-17T05:00:25.293Z,1003.75
2018-05-17T05:01:05.847Z,1003.74
2018-05-17T05:01:46.402Z,1003.72
2018-05-17T05:02:26.922Z,1003.73
2018-05-17T05:03:07.430Z,1003.68
2018-05-17T05:03:47.946Z,1003.71
2018-05-17T05:04:28.467Z,1003.71
2018-05-17T05:05:08.985Z,1003.76
2018-05-17T05:05:49.498Z,1003.7
2018-05-17T05:06:30.046Z,1003.71
2018-05-17T05:07:10.555Z,1003.72
2018-05-17T05:07:51.077Z,1003.73
2018-05-17T05:08:31.592Z,1003.72
2018-05-17T05:09:12.109Z,1003.72
2018-05-17T05:09:52.627Z,1003.73
2018-05-17T05:10:33.146Z,1003.73
2018-05-17T05:11:13.674Z,1003.74
2018-05-17T05:11:54.194Z,1003.8
2018-05-17T05:12:34.716Z,1003.78
2018-05-17T05:13:15.317Z,1003.76
2018-05-17T05:13:55.785Z,1003.78
2018-05-17T05:14:36.293Z,1003.8
2018-05-17T05:15:16.814Z,1003.78
2018-05-17T05:15:57.343Z,1003.8
2018-05-17T05:16:37.860Z,1003.74
2018-05-17T05:17:18.364Z,1003.77
2018-05-17T05:17:58.894Z,1003.78
2018-05-17T05:18:39.410Z,1003.78
2018-05-17T05:19:19.954Z,1003.77
2018-05-17T05:20:00.463Z,1003.79
2018-05-17T05:20:40.998Z,1003.81
2018-05-17T05:21:21.525Z,1003.85
2018-05-17T05:22:02.064Z,1003.83
2018-05-17T05:22:42.593Z,1003.89
2018-05-17T05:23:23.131Z,1003.9
2018-05-17T05:24:03.656Z,1003.9
2018-05-17T05:24:44.192Z,1003.89
2018-05-17T05:25:24.819Z,1003.9
2018-05-17T05:26:05.285Z,1003.87
2018-05-17T05:26:45.797Z,1003.88
2018-05-17T05:27:26.312Z,1003.84
2018-05-17T05:28:06.825Z,1003.87
2018-05-17T05:28:47.353Z,1003.85
2018-05-17T05:29:27.888Z,1003.85
2018-05-17T05:30:08.394Z,1003.87
2018-05-17T05:30:48.946Z,1003.87
2018-05-17T05:31:29.508Z,1003.88
2018-05-17T05:32:09.993Z,1003.92
2018-05-17T05:32:50.506Z,1003.88
2018-05-17T05:33:31.037Z,1003.93
2018-05-17T05:34:11.573Z,1003.89
2018-05-17T05:34:52.102Z,1003.98
2018-05-17T05:35:32.620Z,1004.02
2018-05-17T05:36:13.139Z,1004.04
2018-05-17T05:36:53.680Z,1004.05
2018-05-17T05:37:34.233Z,1004.05
2018-05-17T05:38:14.708Z,1004.04
2018-05-17T05:38:55.226Z,1004.07
2018-05-17T05:39:35.755Z,1004.07
2018-05-17T05:40:16.269Z,1004.1
2018-05-17T05:40:56.813Z,1004.13
2018-05-17T05:41:37.324Z,1004.12
2018-05-17T05:42:17.866Z,1004.19
2018-05-17T05:42:58.405Z,1004.18
2018-05-17T05:43:38.916Z,1004.22
2018-05-17T05:44:19.469Z,1004.17
2018-05-17T05:44:59.994Z,1004.23
2018-05-17T05:45:40.502Z,1004.24
2018-05-17T05:46:21.049Z,1004.27
2018-05-17T05:47:01.573Z,1004.25
2018-05-17T05:47:42.101Z,1004.21
2018-05-17T05:48:22.631Z,1004.2
2018-05-17T05:50:36.024Z,1004.24
2018-05-17T05:51:16.536Z,1004.2
2018-05-17T05:51:57.067Z,1004.2
2018-05-17T05:52:37.578Z,1004.2
2018-05-17T05:53:18.101Z,1004.23
2018-05-17T05:53:58.623Z,1004.26
2018-05-17T05:54:39.133Z,1004.32
2018-05-17T05:55:19.645Z,1004.27
2018-05-17T05:56:00.156Z,1004.3
2018-05-17T05:56:40.650Z,1004.28
2018-05-17T05:57:21.168Z,1004.27
2018-05-17T05:58:01.701Z,1004.32
2018-05-17T05:58:42.230Z,1004.29
2018-05-17T05:59:22.732Z,1004.29
2018-05-17T06:00:03.258Z,1004.31
2018-05-17T06:00:43.773Z,1004.33
2018-05-17T06:01:24.283Z,1004.35
2018-05-17T06:02:04.793Z,1004.36
2018-05-17T06:02:45.310Z,1004.32
2018-05-17T06:03:25.841Z,1004.37
2018-05-17T06:04:06.360Z,1004.37
2018-05-17T06:04:46.897Z,1004.37
2018-05-17T06:05:27.359Z,1004.34
2018-05-17T06:06:07.897Z,1004.4
2018-05-17T06:06:48.384Z,1004.41
2018-05-17T06:07:28.900Z,1004.42
2018-05-17T06:08:09.409Z,1004.39
2018-05-17T06:08:49.933Z,1004.4
2018-05-17T06:09:30.464Z,1004.38
2018-05-17T06:10:10.974Z,1004.39
2018-05-17T06:10:51.491Z,1004.4
2018-05-17T06:11:32.034Z,1004.43
2018-05-17T06:12:12.570Z,1004.37
2018-05-17T06:12:53.077Z,1004.36
2018-05-17T06:13:33.596Z,1004.36
2018-05-17T06:14:14.136Z,1004.37
2018-05-17T06:14:54.657Z,1004.37
2018-05-17T06:15:35.201Z,1004.36
2018-05-17T06:16:15.712Z,1004.34
2018-05-17T06:16:56.231Z,1004.38
2018-05-17T06:17:36.745Z,1004.37
2018-05-17T06:18:17.268Z,1004.36
2018-05-17T06:18:57.798Z,1004.34
2018-05-17T06:19:38.335Z,1004.37
2018-05-17T06:20:18.911Z,1004.32
2018-05-17T06:20:59.399Z,1004.36
2018-05-17T06:21:39.920Z,1004.34
2018-05-17T06:22:20.436Z,1004.35
2018-05-17T06:23:00.958Z,1004.31
2018-05-17T06:23:41.576Z,1004.39
2018-05-17T06:24:21.998Z,1004.39
2018-05-17T06:25:02.532Z,1004.45
2018-05-17T06:25:43.045Z,1004.49
2018-05-17T06:26:23.554Z,1004.5
2018-05-17T06:27:04.070Z,1004.6
2018-05-17T06:27:44.604Z,1004.63
2018-05-17T06:28:25.139Z,1004.68
2018-05-17T06:29:05.667Z,1004.68
2018-05-17T06:29:46.195Z,1004.68
2018-05-17T06:30:26.782Z,1004.74
2018-05-17T06:31:07.239Z,1004.77
2018-05-17T06:31:47.768Z,1004.75
2018-05-17T06:32:28.277Z,1004.8
2018-05-17T06:33:08.794Z,1004.78
2018-05-17T06:33:49.309Z,1004.84
2018-05-17T06:34:29.835Z,1004.84
2018-05-17T06:35:10.346Z,1004.82
2018-05-17T06:35:50.976Z,1004.88
2018-05-17T06:36:31.498Z,1004.84
2018-05-17T06:37:12.019Z,1004.88
2018-05-17T06:37:52.544Z,1004.9
2018-05-17T06:38:33.067Z,1004.91
2018-05-17T06:39:13.575Z,1004.93
2018-05-17T06:39:54.078Z,1005
2018-05-17T06:40:34.593Z,1005.02
2018-05-17T06:41:15.110Z,1005.04
2018-05-17T06:41:55.694Z,1005.04
2018-05-17T06:42:36.189Z,1005.09
2018-05-17T06:43:16.715Z,1005.07
2018-05-17T06:43:57.243Z,1005.16
2018-05-17T06:44:37.770Z,1005.16
2018-05-17T06:45:18.295Z,1005.17
2018-05-17T06:45:58.816Z,1005.13
2018-05-17T06:46:39.321Z,1005.12
2018-05-17T06:47:19.846Z,1005.1
2018-05-17T06:48:00.367Z,1005.1
2018-05-17T06:48:40.894Z,1005.13
2018-05-17T06:49:21.423Z,1005.11
2018-05-17T06:50:01.973Z,1005.09
2018-05-17T06:50:42.488Z,1005.1
2018-05-17T06:51:23.022Z,1005.07
2018-05-17T06:52:03.541Z,1005
2018-05-17T06:52:44.078Z,1004.99
2018-05-17T06:53:24.629Z,1004.89
2018-05-17T06:54:05.138Z,1004.81
2018-05-17T06:54:45.657Z,1004.86
2018-05-17T06:55:26.176Z,1004.84
2018-05-17T06:56:06.699Z,1004.81
2018-05-17T06:56:47.220Z,1004.81
2018-05-17T06:57:27.736Z,1004.8
2018-05-17T06:58:08.264Z,1004.78
2018-05-17T06:58:48.767Z,1004.77
2018-05-17T06:59:29.281Z,1004.8
2018-05-17T07:00:09.810Z,1004.76
2018-05-17T07:00:50.443Z,1004.75
2018-05-17T07:01:30.882Z,1004.77
2018-05-17T07:02:11.392Z,1004.82
2018-05-17T07:02:51.911Z,1004.81
2018-05-17T07:03:32.442Z,1004.82
2018-05-17T07:04:12.980Z,1004.86
2018-05-17T07:04:53.489Z,1004.85
2018-05-17T07:05:34.022Z,1004.83
2018-05-17T07:06:14.541Z,1004.89
2018-05-17T07:06:55.064Z,1004.88
2018-05-17T07:07:35.569Z,1004.85
2018-05-17T07:08:16.085Z,1004.91
2018-05-17T07:08:56.624Z,1004.87
2018-05-17T07:09:37.164Z,1004.93
2018-05-17T07:10:17.682Z,1004.93
2018-05-17T07:10:58.199Z,1004.92
2018-05-17T07:11:38.724Z,1004.93
2018-05-17T07:12:19.248Z,1004.93
2018-05-17T07:12:59.756Z,1004.93
2018-05-17T07:13:40.268Z,1004.97
2018-05-17T07:14:20.798Z,1004.95
2018-05-17T07:15:01.394Z,1005.01
2018-05-17T07:15:41.923Z,1004.95
2018-05-17T07:16:22.435Z,1004.97
2018-05-17T07:17:02.979Z,1004.97
2018-05-17T07:17:43.493Z,1005.03
2018-05-17T07:18:24.195Z,1005.06
2018-05-17T07:19:05.263Z,1005.05
2018-05-17T07:20:01.065Z,1005.07
2018-05-17T07:20:44.897Z,1005.09
2018-05-17T07:21:29.983Z,1005.06
2018-05-17T07:22:16.981Z,1005.08
2018-05-17T07:23:02.477Z,1005.12
2018-05-17T07:23:50.989Z,1005.1
2018-05-17T07:24:32.830Z,1005.1
2018-05-17T07:25:13.349Z,1005.12
2018-05-17T07:27:41.882Z,1005.14
2018-05-17T07:28:22.509Z,1005.18
2018-05-17T07:29:03.018Z,1005.16
2018-05-17T07:29:43.533Z,1005.15
2018-05-17T07:30:24.064Z,1005.17
2018-05-17T07:31:04.577Z,1005.19
2018-05-17T07:31:45.093Z,1005.19
2018-05-17T07:32:25.617Z,1005.19
2018-05-17T07:33:06.124Z,1005.17
2018-05-17T07:33:46.661Z,1005.29
2018-05-17T07:34:27.187Z,1005.3
2018-05-17T07:35:07.717Z,1005.31
2018-05-17T07:35:48.247Z,1005.31
2018-05-17T07:36:28.780Z,1005.33
2018-05-17T07:37:09.309Z,1005.3
2018-05-17T07:37:49.812Z,1005.31
2018-05-17T07:38:30.338Z,1005.31
2018-05-17T07:39:10.947Z,1005.31
2018-05-17T07:39:51.617Z,1005.29
2018-05-17T07:40:32.130Z,1005.32
2018-05-17T07:41:12.647Z,1005.36
2018-05-17T07:41:53.193Z,1005.27
2018-05-17T07:42:33.720Z,1005.41
2018-05-17T07:43:14.237Z,1005.31
2018-05-17T07:43:54.779Z,1005.33
2018-05-17T07:44:35.349Z,1005.36
2018-05-17T07:45:15.894Z,1005.28
2018-05-17T07:45:56.467Z,1005.26
2018-05-17T07:46:37.081Z,1005.25
2018-05-17T07:47:17.559Z,1005.31
2018-05-17T07:47:58.094Z,1005.22
2018-05-17T07:48:38.586Z,1005.2
2018-05-17T07:49:19.220Z,1005.2
2018-05-17T07:49:59.737Z,1005.21
2018-05-17T07:50:40.282Z,1005.28
2018-05-17T07:51:20.807Z,1005.25
2018-05-17T07:52:01.416Z,1005.3
2018-05-17T07:52:41.855Z,1005.25
2018-05-17T07:53:22.369Z,1005.28
2018-05-17T07:54:02.901Z,1005.38
2018-05-17T07:54:43.423Z,1005.28
2018-05-17T07:55:23.943Z,1005.34
2018-05-17T07:56:04.458Z,1005.27
2018-05-17T07:56:44.998Z,1005.29
2018-05-17T07:57:25.551Z,1005.31
2018-05-17T07:58:06.091Z,1005.29
2018-05-17T07:58:46.608Z,1005.21
2018-05-17T07:59:27.127Z,1005.23
2018-05-17T08:00:07.654Z,1005.25
2018-05-17T08:00:48.166Z,1005.35
2018-05-17T08:01:28.688Z,1005.29
2018-05-17T08:02:09.235Z,1005.24
2018-05-17T08:02:49.776Z,1005.3
2018-05-17T08:03:30.319Z,1005.31
2018-05-17T08:04:10.835Z,1005.34
2018-05-17T08:04:51.360Z,1005.35
2018-05-17T08:05:31.885Z,1005.35
2018-05-17T08:06:12.421Z,1005.32
2018-05-17T08:06:52.953Z,1005.39
2018-05-17T08:07:33.467Z,1005.37
2018-05-17T08:08:13.995Z,1005.39
2018-05-17T08:08:54.540Z,1005.4
2018-05-17T08:09:35.063Z,1005.37
2018-05-17T08:10:15.602Z,1005.5
2018-05-17T08:10:56.123Z,1005.47
2018-05-17T08:11:36.636Z,1005.4
2018-05-17T08:12:17.185Z,1005.41
2018-05-17T08:12:57.712Z,1005.42
2018-05-17T08:13:38.228Z,1005.39
2018-05-17T08:14:18.748Z,1005.44
2018-05-17T08:14:59.264Z,1005.44
2018-05-17T08:15:39.784Z,1005.42
2018-05-17T08:16:20.302Z,1005.43